Terminal Aerodrome Forecast
Issued by NWS

Home | Current Version | Previous Version | Text Only | Print | Product List | Glossary On
Versions: 1 2 3 4 5 6 7 8 9 10 11 12 13 14 15 16 17 18 19 20 21 22 23 24 25 26 27 28 29
000
FTUS41 KBOX 251132
TAFBED
TAF
KBED 251132Z 2512/2612 20011G18KT 5SM -RA BKN015 OVC040
     FM251400 25015G29KT P6SM SCT015 OVC050
     FM251500 25016G30KT P6SM BKN050
     FM251800 26015G29KT P6SM SCT250
     FM260400 27009KT P6SM FEW250=

USA.gov is the U.S. government's official web portal to all federal, state and local government web resources and services.